sensor_id;sensor_type;location;lat;lon;timestamp;pressure;altitude;pressure_sealevel;temperature;humidity
69980;BME280;57318;56.232;43.944;2024-02-14T00:01:44;100400.75;;;-16.10;73.07
69980;BME280;57318;56.232;43.944;2024-02-14T00:04:09;100401.69;;;-16.08;72.77
69980;BME280;57318;56.232;43.944;2024-02-14T00:06:36;100405.91;;;-16.08;72.67
69980;BME280;57318;56.232;43.944;2024-02-14T00:09:02;100406.78;;;-16.08;72.53
69980;BME280;57318;56.232;43.944;2024-02-14T00:11:28;100404.91;;;-16.12;72.41
69980;BME280;57318;56.232;43.944;2024-02-14T00:13:54;100415.16;;;-16.10;72.57
69980;BME280;57318;56.232;43.944;2024-02-14T00:16:22;100412.34;;;-16.17;72.54
69980;BME280;57318;56.232;43.944;2024-02-14T00:18:47;100412.34;;;-16.17;72.64
69980;BME280;57318;56.232;43.944;2024-02-14T00:21:13;100411.34;;;-16.20;72.71
69980;BME280;57318;56.232;43.944;2024-02-14T00:23:39;100412.94;;;-16.22;72.61
69980;BME280;57318;56.232;43.944;2024-02-14T00:26:04;100419.91;;;-16.18;72.82
69980;BME280;57318;56.232;43.944;2024-02-14T00:28:30;100429.91;;;-16.23;72.48
69980;BME280;57318;56.232;43.944;2024-02-14T00:30:56;100428.00;;;-16.27;72.68
69980;BME280;57318;56.232;43.944;2024-02-14T00:33:41;100433.84;;;-16.29;72.65
69980;BME280;57318;56.232;43.944;2024-02-14T00:36:07;100432.91;;;-16.31;72.60
69980;BME280;57318;56.232;43.944;2024-02-14T00:38:34;100425.41;;;-16.28;72.26
69980;BME280;57318;56.232;43.944;2024-02-14T00:41:00;100423.47;;;-16.34;72.24
69980;BME280;57318;56.232;43.944;2024-02-14T00:43:25;100429.41;;;-16.33;71.99
69980;BME280;57318;56.232;43.944;2024-02-14T00:45:51;100434.38;;;-16.37;72.24
69980;BME280;57318;56.232;43.944;2024-02-14T00:48:17;100424.75;;;-16.44;72.12
69980;BME280;57318;56.232;43.944;2024-02-14T00:50:43;100432.38;;;-16.44;72.13
69980;BME280;57318;56.232;43.944;2024-02-14T00:53:08;100439.06;;;-16.46;72.03
69980;BME280;57318;56.232;43.944;2024-02-14T00:55:34;100443.34;;;-16.45;72.20
69980;BME280;57318;56.232;43.944;2024-02-14T00:58:00;100444.69;;;-16.53;72.15
69980;BME280;57318;56.232;43.944;2024-02-14T01:00:25;100434.88;;;-16.63;72.36
69980;BME280;57318;56.232;43.944;2024-02-14T01:02:51;100442.59;;;-16.62;72.28
69980;BME280;57318;56.232;43.944;2024-02-14T01:05:17;100439.97;;;-16.63;72.08
69980;BME280;57318;56.232;43.944;2024-02-14T01:07:43;100443.59;;;-16.58;71.82
69980;BME280;57318;56.232;43.944;2024-02-14T01:10:09;100440.81;;;-16.64;71.80
69980;BME280;57318;56.232;43.944;2024-02-14T01:12:36;100443.00;;;-16.72;72.09
69980;BME280;57318;56.232;43.944;2024-02-14T01:15:01;100454.97;;;-16.69;71.81
69980;BME280;57318;56.232;43.944;2024-02-14T01:17:32;100454.81;;;-16.73;71.78
69980;BME280;57318;56.232;43.944;2024-02-14T01:19:57;100458.50;;;-16.85;72.00
69980;BME280;57318;56.232;43.944;2024-02-14T01:22:24;100456.50;;;-16.93;72.15
69980;BME280;57318;56.232;43.944;2024-02-14T01:25:08;100458.16;;;-16.93;72.46
69980;BME280;57318;56.232;43.944;2024-02-14T01:27:36;100466.53;;;-16.96;72.51
69980;BME280;57318;56.232;43.944;2024-02-14T01:30:02;100469.00;;;-16.97;72.50
69980;BME280;57318;56.232;43.944;2024-02-14T01:32:32;100466.22;;;-17.02;72.18
69980;BME280;57318;56.232;43.944;2024-02-14T01:34:58;100463.47;;;-17.06;72.22
69980;BME280;57318;56.232;43.944;2024-02-14T01:37:25;100466.16;;;-17.03;72.29
69980;BME280;57318;56.232;43.944;2024-02-14T01:39:50;100483.81;;;-17.06;72.46
69980;BME280;57318;56.232;43.944;2024-02-14T01:42:16;100479.44;;;-17.09;72.07
69980;BME280;57318;56.232;43.944;2024-02-14T01:44:42;100471.44;;;-17.17;72.37
69980;BME280;57318;56.232;43.944;2024-02-14T01:47:09;100477.59;;;-17.12;72.17
69980;BME280;57318;56.232;43.944;2024-02-14T01:49:36;100480.75;;;-17.17;72.13
69980;BME280;57318;56.232;43.944;2024-02-14T01:52:02;100480.53;;;-17.22;72.40
69980;BME280;57318;56.232;43.944;2024-02-14T01:54:29;100478.84;;;-17.21;72.14
69980;BME280;57318;56.232;43.944;2024-02-14T01:56:56;100479.50;;;-17.26;71.88
69980;BME280;57318;56.232;43.944;2024-02-14T01:59:24;100493.06;;;-17.25;71.96
69980;BME280;57318;56.232;43.944;2024-02-14T02:01:50;100497.38;;;-17.24;71.89
69980;BME280;57318;56.232;43.944;2024-02-14T02:04:18;100492.78;;;-17.31;72.08
69980;BME280;57318;56.232;43.944;2024-02-14T02:06:44;100491.69;;;-17.36;71.99
69980;BME280;57318;56.232;43.944;2024-02-14T02:09:10;100498.56;;;-17.34;72.07
69980;BME280;57318;56.232;43.944;2024-02-14T02:11:46;100501.78;;;-17.38;71.95
69980;BME280;57318;56.232;43.944;2024-02-14T02:14:34;100501.31;;;-17.47;71.95
69980;BME280;57318;56.232;43.944;2024-02-14T02:17:19;100495.22;;;-17.51;72.11
69980;BME280;57318;56.232;43.944;2024-02-14T02:20:06;100506.81;;;-17.56;72.15
69980;BME280;57318;56.232;43.944;2024-02-14T02:22:34;100515.38;;;-17.54;72.02
69980;BME280;57318;56.232;43.944;2024-02-14T02:25:20;100513.31;;;-17.61;72.17
69980;BME280;57318;56.232;43.944;2024-02-14T02:28:10;100516.03;;;-17.58;71.85
69980;BME280;57318;56.232;43.944;2024-02-14T02:30:42;100510.72;;;-17.63;72.09
69980;BME280;57318;56.232;43.944;2024-02-14T02:33:11;100512.84;;;-17.70;72.20
69980;BME280;57318;56.232;43.944;2024-02-14T02:35:41;100512.69;;;-17.73;72.35
69980;BME280;57318;56.232;43.944;2024-02-14T02:38:27;100519.22;;;-17.78;72.16
69980;BME280;57318;56.232;43.944;2024-02-14T02:41:15;100520.25;;;-17.75;71.91
69980;BME280;57318;56.232;43.944;2024-02-14T02:44:00;100528.13;;;-17.87;72.24
69980;BME280;57318;56.232;43.944;2024-02-14T02:46:49;100530.97;;;-17.81;71.94
69980;BME280;57318;56.232;43.944;2024-02-14T02:49:35;100539.38;;;-17.82;71.90
69980;BME280;57318;56.232;43.944;2024-02-14T02:52:22;100533.44;;;-17.82;71.83
69980;BME280;57318;56.232;43.944;2024-02-14T02:55:08;100538.28;;;-17.87;71.74
69980;BME280;57318;56.232;43.944;2024-02-14T02:57:41;100541.38;;;-17.92;71.88
69980;BME280;57318;56.232;43.944;2024-02-14T03:00:10;100534.63;;;-17.92;71.64
69980;BME280;57318;56.232;43.944;2024-02-14T03:02:52;100540.38;;;-17.96;71.54
69980;BME280;57318;56.232;43.944;2024-02-14T03:05:37;100543.84;;;-17.94;71.58
69980;BME280;57318;56.232;43.944;2024-02-14T03:08:24;100552.25;;;-17.95;71.43
69980;BME280;57318;56.232;43.944;2024-02-14T03:11:10;100545.97;;;-18.02;71.68
69980;BME280;57318;56.232;43.944;2024-02-14T03:13:56;100546.72;;;-18.04;71.67
69980;BME280;57318;56.232;43.944;2024-02-14T03:16:42;100555.03;;;-18.07;71.58
69980;BME280;57318;56.232;43.944;2024-02-14T03:19:08;100560.81;;;-18.09;71.50
69980;BME280;57318;56.232;43.944;2024-02-14T03:21:34;100563.19;;;-18.12;71.75
69980;BME280;57318;56.232;43.944;2024-02-14T03:24:02;100553.91;;;-18.12;71.67
69980;BME280;57318;56.232;43.944;2024-02-14T03:26:31;100562.47;;;-18.10;71.39
69980;BME280;57318;56.232;43.944;2024-02-14T03:29:02;100560.47;;;-18.15;71.26
69980;BME280;57318;56.232;43.944;2024-02-14T03:31:28;100565.31;;;-18.20;71.52
69980;BME280;57318;56.232;43.944;2024-02-14T03:33:53;100572.66;;;-18.25;71.74
69980;BME280;57318;56.232;43.944;2024-02-14T03:36:19;100563.78;;;-18.33;71.98
69980;BME280;57318;56.232;43.944;2024-02-14T03:38:45;100580.75;;;-18.32;71.98
69980;BME280;57318;56.232;43.944;2024-02-14T03:41:12;100577.56;;;-18.28;71.51
69980;BME280;57318;56.232;43.944;2024-02-14T03:43:39;100578.66;;;-18.39;71.72
69980;BME280;57318;56.232;43.944;2024-02-14T03:46:04;100581.13;;;-18.41;71.70
69980;BME280;57318;56.232;43.944;2024-02-14T03:48:31;100582.00;;;-18.40;71.61
69980;BME280;57318;56.232;43.944;2024-02-14T03:50:57;100576.78;;;-18.43;71.93
69980;BME280;57318;56.232;43.944;2024-02-14T03:53:23;100594.34;;;-18.46;71.66
69980;BME280;57318;56.232;43.944;2024-02-14T03:55:48;100584.91;;;-18.49;71.95
69980;BME280;57318;56.232;43.944;2024-02-14T03:58:15;100589.72;;;-18.54;71.96
69980;BME280;57318;56.232;43.944;2024-02-14T04:00:49;100595.56;;;-18.55;71.80
69980;BME280;57318;56.232;43.944;2024-02-14T04:03:16;100598.28;;;-18.51;71.53
69980;BME280;57318;56.232;43.944;2024-02-14T04:05:42;100601.19;;;-18.60;71.84
69980;BME280;57318;56.232;43.944;2024-02-14T04:08:08;100597.63;;;-18.64;71.48
69980;BME280;57318;56.232;43.944;2024-02-14T04:10:38;100609.84;;;-18.57;71.43
69980;BME280;57318;56.232;43.944;2024-02-14T04:13:04;100607.78;;;-18.64;71.34
69980;BME280;57318;56.232;43.944;2024-02-14T04:15:31;100616.94;;;-18.66;71.52
69980;BME280;57318;56.232;43.944;2024-02-14T04:18:16;100621.13;;;-18.66;71.64
69980;BME280;57318;56.232;43.944;2024-02-14T04:20:44;100615.97;;;-18.68;71.31
69980;BME280;57318;56.232;43.944;2024-02-14T04:23:09;100621.03;;;-18.68;71.25
69980;BME280;57318;56.232;43.944;2024-02-14T04:25:35;100622.97;;;-18.64;71.27
69980;BME280;57318;56.232;43.944;2024-02-14T04:28:03;100627.31;;;-18.61;71.31
69980;BME280;57318;56.232;43.944;2024-02-14T04:30:28;100634.25;;;-18.59;71.21
69980;BME280;57318;56.232;43.944;2024-02-14T04:33:17;100626.97;;;-18.52;70.81
69980;BME280;57318;56.232;43.944;2024-02-14T04:35:43;100640.44;;;-18.54;70.48
69980;BME280;57318;56.232;43.944;2024-02-14T04:38:08;100643.59;;;-18.58;70.74
69980;BME280;57318;56.232;43.944;2024-02-14T04:40:34;100643.44;;;-18.61;70.97
69980;BME280;57318;56.232;43.944;2024-02-14T04:43:00;100657.06;;;-18.59;70.45
69980;BME280;57318;56.232;43.944;2024-02-14T04:45:25;100653.75;;;-18.58;70.68
69980;BME280;57318;56.232;43.944;2024-02-14T04:48:06;100657.16;;;-18.57;70.82
69980;BME280;57318;56.232;43.944;2024-02-14T04:50:33;100666.34;;;-18.59;70.28
69980;BME280;57318;56.232;43.944;2024-02-14T04:52:59;100668.22;;;-18.55;70.48
69980;BME280;57318;56.232;43.944;2024-02-14T04:55:25;100669.91;;;-18.56;70.09
69980;BME280;57318;56.232;43.944;2024-02-14T04:57:50;100676.72;;;-18.55;69.92
69980;BME280;57318;56.232;43.944;2024-02-14T05:00:16;100664.66;;;-18.59;69.92
69980;BME280;57318;56.232;43.944;2024-02-14T05:02:42;100674.16;;;-18.55;69.86
69980;BME280;57318;56.232;43.944;2024-02-14T05:05:07;100686.69;;;-18.43;69.11
69980;BME280;57318;56.232;43.944;2024-02-14T05:07:39;100687.09;;;-18.50;69.24
69980;BME280;57318;56.232;43.944;2024-02-14T05:10:05;100698.03;;;-18.36;68.83
69980;BME280;57318;56.232;43.944;2024-02-14T05:12:32;100700.41;;;-18.39;68.99
69980;BME280;57318;56.232;43.944;2024-02-14T05:19:04;100710.53;;;-18.39;67.99
69980;BME280;57318;56.232;43.944;2024-02-14T05:21:30;100712.81;;;-18.29;68.14
69980;BME280;57318;56.232;43.944;2024-02-14T05:23:55;100715.34;;;-18.29;67.92
69980;BME280;57318;56.232;43.944;2024-02-14T05:26:21;100716.94;;;-18.31;67.89
69980;BME280;57318;56.232;43.944;2024-02-14T05:28:47;100718.94;;;-18.25;67.99
69980;BME280;57318;56.232;43.944;2024-02-14T05:31:12;100728.78;;;-18.00;67.27
69980;BME280;57318;56.232;43.944;2024-02-14T05:33:42;100728.53;;;-18.05;67.10
69980;BME280;57318;56.232;43.944;2024-02-14T05:36:09;100732.69;;;-17.90;66.77
69980;BME280;57318;56.232;43.944;2024-02-14T05:38:35;100737.97;;;-17.86;66.43
69980;BME280;57318;56.232;43.944;2024-02-14T05:41:01;100740.16;;;-17.77;66.22
69980;BME280;57318;56.232;43.944;2024-02-14T05:43:27;100740.44;;;-17.56;65.83
69980;BME280;57318;56.232;43.944;2024-02-14T05:45:53;100745.25;;;-17.13;64.73
69980;BME280;57318;56.232;43.944;2024-02-14T05:48:22;100752.00;;;-16.97;63.57
69980;BME280;57318;56.232;43.944;2024-02-14T05:50:48;100755.22;;;-15.78;61.52
69980;BME280;57318;56.232;43.944;2024-02-14T05:53:13;100751.63;;;-14.27;55.57
69980;BME280;57318;56.232;43.944;2024-02-14T05:55:39;100757.22;;;-12.29;51.95
69980;BME280;57318;56.232;43.944;2024-02-14T05:58:05;100751.34;;;-11.14;47.04
69980;BME280;57318;56.232;43.944;2024-02-14T06:00:32;100746.84;;;-10.26;43.45
69980;BME280;57318;56.232;43.944;2024-02-14T06:02:58;100759.00;;;-9.47;41.76
69980;BME280;57318;56.232;43.944;2024-02-14T06:05:38;100750.22;;;-8.75;39.67
69980;BME280;57318;56.232;43.944;2024-02-14T06:08:06;100754.25;;;-7.35;37.32
69980;BME280;57318;56.232;43.944;2024-02-14T06:10:38;100759.13;;;-6.91;35.86
69980;BME280;57318;56.232;43.944;2024-02-14T06:13:22;100753.19;;;-5.94;33.20
69980;BME280;57318;56.232;43.944;2024-02-14T06:15:58;100748.22;;;-5.68;32.14
69980;BME280;57318;56.232;43.944;2024-02-14T06:18:32;100747.06;;;-4.54;30.93
69980;BME280;57318;56.232;43.944;2024-02-14T06:20:58;100767.03;;;-4.11;30.35
69980;BME280;57318;56.232;43.944;2024-02-14T06:23:30;100765.34;;;-3.87;29.43
69980;BME280;57318;56.232;43.944;2024-02-14T06:25:58;100773.09;;;-4.04;29.45
69980;BME280;57318;56.232;43.944;2024-02-14T06:28:24;100760.13;;;-3.44;27.81
69980;BME280;57318;56.232;43.944;2024-02-14T06:30:50;100764.34;;;-2.98;28.07
69980;BME280;57318;56.232;43.944;2024-02-14T06:33:40;100746.97;;;-2.87;26.68
69980;BME280;57318;56.232;43.944;2024-02-14T06:36:35;100744.56;;;-3.84;27.66
69980;BME280;57318;56.232;43.944;2024-02-14T06:39:01;100754.81;;;-3.04;26.77
69980;BME280;57318;56.232;43.944;2024-02-14T06:41:34;100776.22;;;-2.31;25.99
69980;BME280;57318;56.232;43.944;2024-02-14T06:44:00;100773.94;;;-0.76;25.32
69980;BME280;57318;56.232;43.944;2024-02-14T06:46:33;100780.00;;;-0.72;23.48
69980;BME280;57318;56.232;43.944;2024-02-14T06:49:01;100785.38;;;-0.84;23.77
69980;BME280;57318;56.232;43.944;2024-02-14T06:51:27;100774.44;;;0.15;23.59
69980;BME280;57318;56.232;43.944;2024-02-14T06:53:53;100770.50;;;0.92;22.07
69980;BME280;57318;56.232;43.944;2024-02-14T06:56:18;100778.91;;;0.61;21.73
69980;BME280;57318;56.232;43.944;2024-02-14T06:58:45;100776.09;;;1.19;21.33
69980;BME280;57318;56.232;43.944;2024-02-14T07:01:11;100779.19;;;1.38;20.73
69980;BME280;57318;56.232;43.944;2024-02-14T07:03:40;100789.22;;;1.17;21.09
69980;BME280;57318;56.232;43.944;2024-02-14T07:06:06;100790.69;;;2.48;20.11
69980;BME280;57318;56.232;43.944;2024-02-14T07:08:32;100783.09;;;1.99;19.93
69980;BME280;57318;56.232;43.944;2024-02-14T07:10:57;100786.88;;;2.25;19.67
69980;BME280;57318;56.232;43.944;2024-02-14T07:13:23;100779.94;;;1.85;20.03
69980;BME280;57318;56.232;43.944;2024-02-14T07:15:49;100777.47;;;2.16;19.49
69980;BME280;57318;56.232;43.944;2024-02-14T07:18:17;100789.09;;;2.77;19.58
69980;BME280;57318;56.232;43.944;2024-02-14T07:20:43;100791.25;;;2.94;18.98
69980;BME280;57318;56.232;43.944;2024-02-14T07:23:09;100789.88;;;2.80;18.44
69980;BME280;57318;56.232;43.944;2024-02-14T07:25:34;100792.91;;;2.98;18.39
69980;BME280;57318;56.232;43.944;2024-02-14T07:28:10;100789.47;;;2.27;19.01
69980;BME280;57318;56.232;43.944;2024-02-14T07:30:36;100782.50;;;3.26;18.24
69980;BME280;57318;56.232;43.944;2024-02-14T07:33:02;100785.09;;;3.28;19.00
69980;BME280;57318;56.232;43.944;2024-02-14T07:35:28;100786.00;;;3.56;18.33
69980;BME280;57318;56.232;43.944;2024-02-14T07:37:55;100785.75;;;3.94;18.08
69980;BME280;57318;56.232;43.944;2024-02-14T07:40:22;100784.25;;;4.94;17.39
69980;BME280;57318;56.232;43.944;2024-02-14T07:43:10;100792.91;;;5.70;16.74
69980;BME280;57318;56.232;43.944;2024-02-14T07:45:37;100801.22;;;5.10;16.54
69980;BME280;57318;56.232;43.944;2024-02-14T07:48:03;100796.38;;;5.47;16.55
69980;BME280;57318;56.232;43.944;2024-02-14T07:50:29;100797.09;;;5.52;16.59
69980;BME280;57318;56.232;43.944;2024-02-14T07:52:55;100800.28;;;5.13;17.04
69980;BME280;57318;56.232;43.944;2024-02-14T07:55:21;100803.94;;;6.47;16.05
69980;BME280;57318;56.232;43.944;2024-02-14T07:57:48;100809.06;;;7.14;15.19
69980;BME280;57318;56.232;43.944;2024-02-14T08:00:14;100815.72;;;7.22;15.47
69980;BME280;57318;56.232;43.944;2024-02-14T08:02:44;100821.31;;;7.94;15.60
69980;BME280;57318;56.232;43.944;2024-02-14T08:05:15;100813.72;;;8.61;14.26
69980;BME280;57318;56.232;43.944;2024-02-14T08:07:44;100817.31;;;9.46;14.01
69980;BME280;57318;56.232;43.944;2024-02-14T08:10:21;100815.44;;;8.06;14.06
69980;BME280;57318;56.232;43.944;2024-02-14T08:12:47;100819.59;;;8.85;15.16
69980;BME280;57318;56.232;43.944;2024-02-14T08:15:32;100813.78;;;8.94;13.87
69980;BME280;57318;56.232;43.944;2024-02-14T08:17:58;100810.75;;;9.02;13.83
69980;BME280;57318;56.232;43.944;2024-02-14T08:20:24;100815.84;;;7.59;14.18
69980;BME280;57318;56.232;43.944;2024-02-14T08:23:12;100826.09;;;8.05;14.26
69980;BME280;57318;56.232;43.944;2024-02-14T08:25:46;100820.25;;;8.35;14.22
69980;BME280;57318;56.232;43.944;2024-02-14T08:28:14;100820.63;;;7.11;14.87
69980;BME280;57318;56.232;43.944;2024-02-14T08:30:40;100820.44;;;7.93;14.38
69980;BME280;57318;56.232;43.944;2024-02-14T08:33:08;100818.78;;;8.83;14.21
69980;BME280;57318;56.232;43.944;2024-02-14T08:35:33;100808.97;;;9.02;13.43
69980;BME280;57318;56.232;43.944;2024-02-14T08:37:59;100811.59;;;9.53;13.33
69980;BME280;57318;56.232;43.944;2024-02-14T08:40:28;100808.75;;;10.22;13.48
69980;BME280;57318;56.232;43.944;2024-02-14T08:42:54;100809.09;;;10.92;12.68
69980;BME280;57318;56.232;43.944;2024-02-14T08:45:25;100810.66;;;11.11;12.70
69980;BME280;57318;56.232;43.944;2024-02-14T08:47:51;100805.91;;;8.93;13.44
69980;BME280;57318;56.232;43.944;2024-02-14T08:50:17;100799.31;;;8.66;13.43
69980;BME280;57318;56.232;43.944;2024-02-14T08:52:43;100799.53;;;8.06;13.87
69980;BME280;57318;56.232;43.944;2024-02-14T08:55:09;100795.56;;;7.59;14.71
69980;BME280;57318;56.232;43.944;2024-02-14T08:57:41;100813.28;;;6.77;14.69
69980;BME280;57318;56.232;43.944;2024-02-14T09:00:07;100818.09;;;6.67;15.28
69980;BME280;57318;56.232;43.944;2024-02-14T09:02:34;100815.09;;;6.97;15.05
69980;BME280;57318;56.232;43.944;2024-02-14T09:05:00;100815.91;;;6.56;15.19
69980;BME280;57318;56.232;43.944;2024-02-14T09:07:34;100826.63;;;6.74;15.18
69980;BME280;57318;56.232;43.944;2024-02-14T09:10:02;100826.16;;;6.64;15.43
69980;BME280;57318;56.232;43.944;2024-02-14T09:12:39;100827.09;;;7.25;15.67
69980;BME280;57318;56.232;43.944;2024-02-14T09:15:07;100821.47;;;7.91;14.94
69980;BME280;57318;56.232;43.944;2024-02-14T09:17:34;100822.50;;;8.61;14.26
69980;BME280;57318;56.232;43.944;2024-02-14T09:19:59;100823.41;;;8.43;14.01
69980;BME280;57318;56.232;43.944;2024-02-14T09:22:25;100821.47;;;8.10;14.50
69980;BME280;57318;56.232;43.944;2024-02-14T09:24:51;100829.06;;;8.54;14.54
69980;BME280;57318;56.232;43.944;2024-02-14T09:27:23;100815.38;;;9.32;13.52
69980;BME280;57318;56.232;43.944;2024-02-14T09:29:57;100809.78;;;10.03;12.97
69980;BME280;57318;56.232;43.944;2024-02-14T09:32:45;100801.75;;;9.22;13.54
69980;BME280;57318;56.232;43.944;2024-02-14T09:35:20;100823.97;;;10.02;13.69
69980;BME280;57318;56.232;43.944;2024-02-14T09:37:57;100821.19;;;9.56;13.70
69980;BME280;57318;56.232;43.944;2024-02-14T09:40:23;100829.38;;;9.85;13.42
69980;BME280;57318;56.232;43.944;2024-02-14T09:42:56;100830.34;;;10.47;12.68
69980;BME280;57318;56.232;43.944;2024-02-14T09:45:25;100826.53;;;9.72;13.19
69980;BME280;57318;56.232;43.944;2024-02-14T09:47:53;100835.25;;;9.58;13.37
69980;BME280;57318;56.232;43.944;2024-02-14T09:50:20;100824.53;;;9.26;13.52
69980;BME280;57318;56.232;43.944;2024-02-14T09:52:47;100827.56;;;10.01;13.38
69980;BME280;57318;56.232;43.944;2024-02-14T09:55:16;100842.41;;;10.21;13.29
69980;BME280;57318;56.232;43.944;2024-02-14T09:57:45;100834.72;;;10.33;13.10
69980;BME280;57318;56.232;43.944;2024-02-14T10:00:13;100837.00;;;10.23;13.09
69980;BME280;57318;56.232;43.944;2024-02-14T10:02:41;100837.72;;;8.75;13.61
69980;BME280;57318;56.232;43.944;2024-02-14T10:05:08;100836.00;;;8.38;14.34
69980;BME280;57318;56.232;43.944;2024-02-14T10:07:43;100838.16;;;9.69;14.23
69980;BME280;57318;56.232;43.944;2024-02-14T10:10:10;100838.09;;;9.37;13.61
69980;BME280;57318;56.232;43.944;2024-02-14T10:12:36;100832.34;;;8.77;13.97
69980;BME280;57318;56.232;43.944;2024-02-14T10:15:03;100846.72;;;8.73;13.98
69980;BME280;57318;56.232;43.944;2024-02-14T10:17:32;100839.28;;;8.97;14.56
69980;BME280;57318;56.232;43.944;2024-02-14T10:19:59;100836.56;;;8.63;14.38
69980;BME280;57318;56.232;43.944;2024-02-14T10:22:32;100832.59;;;9.25;14.18
69980;BME280;57318;56.232;43.944;2024-02-14T10:25:00;100834.25;;;9.77;13.63
69980;BME280;57318;56.232;43.944;2024-02-14T10:27:26;100836.50;;;9.51;13.77
69980;BME280;57318;56.232;43.944;2024-02-14T10:29:51;100833.59;;;9.22;13.98
69980;BME280;57318;56.232;43.944;2024-02-14T10:32:17;100839.72;;;9.73;13.82
69980;BME280;57318;56.232;43.944;2024-02-14T10:34:46;100839.06;;;10.50;13.51
69980;BME280;57318;56.232;43.944;2024-02-14T10:37:24;100835.88;;;9.79;13.66
69980;BME280;57318;56.232;43.944;2024-02-14T10:40:02;100837.19;;;10.04;14.14
69980;BME280;57318;56.232;43.944;2024-02-14T10:42:33;100831.63;;;9.26;13.88
69980;BME280;57318;56.232;43.944;2024-02-14T10:48:12;100835.75;;;7.68;15.06
69980;BME280;57318;56.232;43.944;2024-02-14T10:50:41;100837.00;;;6.99;15.48
69980;BME280;57318;56.232;43.944;2024-02-14T10:53:13;100839.25;;;8.06;15.13
69980;BME280;57318;56.232;43.944;2024-02-14T10:55:40;100832.41;;;7.83;15.47
69980;BME280;57318;56.232;43.944;2024-02-14T10:58:08;100843.28;;;7.96;14.80
69980;BME280;57318;56.232;43.944;2024-02-14T11:00:37;100842.16;;;7.02;15.35
69980;BME280;57318;56.232;43.944;2024-02-14T11:03:03;100852.53;;;7.27;15.66
69980;BME280;57318;56.232;43.944;2024-02-14T11:05:29;100845.13;;;8.13;15.51
69980;BME280;57318;56.232;43.944;2024-02-14T11:07:55;100838.16;;;8.29;14.65
69980;BME280;57318;56.232;43.944;2024-02-14T11:10:22;100847.78;;;7.75;15.17
69980;BME280;57318;56.232;43.944;2024-02-14T11:12:49;100841.06;;;7.87;14.95
69980;BME280;57318;56.232;43.944;2024-02-14T11:15:24;100849.81;;;7.49;15.84
69980;BME280;57318;56.232;43.944;2024-02-14T11:18:04;100848.78;;;6.92;15.45
69980;BME280;57318;56.232;43.944;2024-02-14T11:20:32;100854.50;;;8.20;15.21
69980;BME280;57318;56.232;43.944;2024-02-14T11:23:07;100856.28;;;7.21;15.73
69980;BME280;57318;56.232;43.944;2024-02-14T11:25:37;100856.63;;;7.55;15.48
69980;BME280;57318;56.232;43.944;2024-02-14T11:28:13;100857.50;;;7.74;15.26
69980;BME280;57318;56.232;43.944;2024-02-14T11:30:43;100858.72;;;6.85;15.87
69980;BME280;57318;56.232;43.944;2024-02-14T11:33:19;100858.59;;;7.89;15.82
69980;BME280;57318;56.232;43.944;2024-02-14T11:35:50;100859.66;;;7.85;15.34
69980;BME280;57318;56.232;43.944;2024-02-14T11:38:17;100857.56;;;6.49;16.12
69980;BME280;57318;56.232;43.944;2024-02-14T11:40:44;100860.19;;;6.49;16.74
69980;BME280;57318;56.232;43.944;2024-02-14T11:43:13;100852.69;;;5.69;16.50
69980;BME280;57318;56.232;43.944;2024-02-14T11:45:43;100849.97;;;5.23;17.45
69980;BME280;57318;56.232;43.944;2024-02-14T11:48:14;100860.06;;;6.08;17.16
69980;BME280;57318;56.232;43.944;2024-02-14T11:50:41;100850.38;;;6.53;16.71
69980;BME280;57318;56.232;43.944;2024-02-14T11:53:12;100852.28;;;7.13;16.59
69980;BME280;57318;56.232;43.944;2024-02-14T11:55:40;100843.97;;;7.22;16.13
69980;BME280;57318;56.232;43.944;2024-02-14T12:00:33;100857.97;;;7.64;15.57
69980;BME280;57318;56.232;43.944;2024-02-14T12:03:01;100851.16;;;7.79;15.89
69980;BME280;57318;56.232;43.944;2024-02-14T12:05:28;100853.72;;;7.99;15.97
69980;BME280;57318;56.232;43.944;2024-02-14T12:07:54;100854.13;;;7.71;15.83
69980;BME280;57318;56.232;43.944;2024-02-14T12:10:20;100858.50;;;7.72;16.11
69980;BME280;57318;56.232;43.944;2024-02-14T12:12:47;100862.50;;;8.00;16.11
69980;BME280;57318;56.232;43.944;2024-02-14T12:15:13;100863.16;;;7.86;16.08
69980;BME280;57318;56.232;43.944;2024-02-14T12:17:41;100869.47;;;7.44;16.15
69980;BME280;57318;56.232;43.944;2024-02-14T12:20:10;100864.03;;;7.05;16.33
69980;BME280;57318;56.232;43.944;2024-02-14T12:22:38;100865.25;;;6.98;16.22
69980;BME280;57318;56.232;43.944;2024-02-14T12:25:06;100869.78;;;6.95;16.24
69980;BME280;57318;56.232;43.944;2024-02-14T12:27:34;100871.31;;;6.58;16.77
69980;BME280;57318;56.232;43.944;2024-02-14T12:30:03;100875.50;;;5.70;17.46
69980;BME280;57318;56.232;43.944;2024-02-14T12:32:29;100874.66;;;5.70;17.66
69980;BME280;57318;56.232;43.944;2024-02-14T12:35:01;100880.84;;;5.92;17.47
69980;BME280;57318;56.232;43.944;2024-02-14T12:37:27;100885.56;;;6.08;17.16
69980;BME280;57318;56.232;43.944;2024-02-14T12:39:52;100882.84;;;5.86;17.37
69980;BME280;57318;56.232;43.944;2024-02-14T12:42:19;100889.84;;;5.63;17.95
69980;BME280;57318;56.232;43.944;2024-02-14T12:44:53;100888.88;;;5.15;17.96
69980;BME280;57318;56.232;43.944;2024-02-14T12:47:19;100890.56;;;4.91;18.14
69980;BME280;57318;56.232;43.944;2024-02-14T12:49:48;100894.78;;;4.97;18.28
69980;BME280;57318;56.232;43.944;2024-02-14T12:52:15;100882.38;;;4.74;18.39
69980;BME280;57318;56.232;43.944;2024-02-14T12:54:40;100888.63;;;4.96;18.22
69980;BME280;57318;56.232;43.944;2024-02-14T12:57:06;100889.91;;;4.84;18.34
69980;BME280;57318;56.232;43.944;2024-02-14T12:59:32;100886.69;;;4.48;18.37
69980;BME280;57318;56.232;43.944;2024-02-14T13:01:58;100897.22;;;4.48;19.04